KAL2191 RKSI-RJFU
Flight info
| Callsign | KAL2191 |
|---|---|
| Flight time | 1h 4m |
| Altitude | 29000 |
| Route | DCT OSPOT Y782 TGU Y781 BESNA Y209 IKE Y251 OLE DCT |
| Aircraft | A21N/M-SDE2FGHIJ1J3J4J7M3P2RWXYZ/LB2D1G1 |
Departure
| Time | 2026-04-23 07:08 |
|---|---|
| Airport | Incheon International Airport (RKSI) |
Arrival
| Time | 2026-04-23 08:12 |
|---|---|
| Airport | Nagasaki Airport (RJFU) |
| Time | Latitude | Longitude | Altitude | Speed | Heading |
|---|---|---|---|---|---|
| 2026-04-23 06:35 | 37.47075 | 126.42650 | 38 ft | 0 kts | 145° |
| 2026-04-23 06:50 | 37.47080 | 126.42646 | 38 ft | 2 kts | 145° |
| 2026-04-23 06:51 | 37.47094 | 126.42633 | 34 ft | 3 kts | 147° |
| 2026-04-23 06:51 | 37.47110 | 126.42623 | 37 ft | 3 kts | 173° |
| 2026-04-23 06:51 | 37.47128 | 126.42626 | 37 ft | 3 kts | 213° |
| 2026-04-23 06:51 | 37.47142 | 126.42642 | 38 ft | 3 kts | 233° |
| 2026-04-23 06:52 | 37.47150 | 126.42656 | 38 ft | 1 kts | 234° |
| 2026-04-23 06:52 | 37.47152 | 126.42659 | 38 ft | 0 kts | 234° |
| 2026-04-23 06:56 | 37.47152 | 126.42642 | 38 ft | 4 kts | 285° |
| 2026-04-23 06:56 | 37.47183 | 126.42613 | 38 ft | 7 kts | 352° |
| 2026-04-23 06:57 | 37.47228 | 126.42660 | 38 ft | 10 kts | 55° |
| 2026-04-23 06:57 | 37.47271 | 126.42739 | 38 ft | 12 kts | 55° |
| 2026-04-23 06:57 | 37.47323 | 126.42833 | 38 ft | 14 kts | 55° |
| 2026-04-23 06:57 | 37.47379 | 126.42932 | 38 ft | 10 kts | 54° |
| 2026-04-23 06:58 | 37.47422 | 126.43008 | 36 ft | 12 kts | 54° |
| 2026-04-23 06:58 | 37.47473 | 126.43098 | 38 ft | 13 kts | 54° |
| 2026-04-23 06:58 | 37.47531 | 126.43201 | 38 ft | 15 kts | 54° |
| 2026-04-23 06:58 | 37.47596 | 126.43315 | 38 ft | 17 kts | 54° |
| 2026-04-23 06:59 | 37.47660 | 126.43429 | 38 ft | 15 kts | 54° |
| 2026-04-23 06:59 | 37.47719 | 126.43534 | 38 ft | 10 kts | 54° |
| 2026-04-23 06:59 | 37.47726 | 126.43618 | 36 ft | 12 kts | 130° |
| 2026-04-23 06:59 | 37.47655 | 126.43683 | 38 ft | 13 kts | 145° |
| 2026-04-23 07:00 | 37.47574 | 126.43755 | 38 ft | 15 kts | 145° |
| 2026-04-23 07:00 | 37.47482 | 126.43836 | 36 ft | 17 kts | 145° |
| 2026-04-23 07:00 | 37.47380 | 126.43926 | 38 ft | 18 kts | 144° |
| 2026-04-23 07:00 | 37.47272 | 126.44023 | 38 ft | 20 kts | 144° |
| 2026-04-23 07:01 | 37.47157 | 126.44126 | 37 ft | 21 kts | 144° |
| 2026-04-23 07:01 | 37.47042 | 126.44229 | 37 ft | 18 kts | 145° |
| 2026-04-23 07:01 | 37.46936 | 126.44322 | 38 ft | 19 kts | 145° |
| 2026-04-23 07:01 | 37.46861 | 126.44388 | 38 ft | 20 kts | 145° |
| 2026-04-23 07:02 | 37.46707 | 126.44526 | 38 ft | 20 kts | 144° |
| 2026-04-23 07:02 | 37.46589 | 126.44632 | 38 ft | 21 kts | 144° |
| 2026-04-23 07:02 | 37.46486 | 126.44723 | 38 ft | 15 kts | 145° |
| 2026-04-23 07:02 | 37.46427 | 126.44774 | 38 ft | 16 kts | 145° |
| 2026-04-23 07:03 | 37.46331 | 126.44858 | 38 ft | 18 kts | 145° |
| 2026-04-23 07:03 | 37.46190 | 126.44984 | 38 ft | 19 kts | 144° |
| 2026-04-23 07:03 | 37.46077 | 126.45085 | 38 ft | 21 kts | 144° |
| 2026-04-23 07:03 | 37.45961 | 126.45189 | 38 ft | 17 kts | 144° |
| 2026-04-23 07:04 | 37.45860 | 126.45280 | 38 ft | 19 kts | 144° |
| 2026-04-23 07:04 | 37.45750 | 126.45378 | 38 ft | 20 kts | 145° |
| 2026-04-23 07:04 | 37.45671 | 126.45447 | 38 ft | 21 kts | 145° |
| 2026-04-23 07:04 | 37.45549 | 126.45556 | 38 ft | 22 kts | 144° |
| 2026-04-23 07:05 | 37.45479 | 126.45618 | 38 ft | 12 kts | 144° |
| 2026-04-23 07:05 | 37.45405 | 126.45685 | 38 ft | 14 kts | 144° |
| 2026-04-23 07:05 | 37.45320 | 126.45761 | 38 ft | 16 kts | 145° |
| 2026-04-23 07:05 | 37.45316 | 126.45881 | 38 ft | 17 kts | 52° |
| 2026-04-23 07:06 | 37.45391 | 126.46008 | 38 ft | 19 kts | 54° |
| 2026-04-23 07:06 | 37.45443 | 126.46067 | 38 ft | 10 kts | 351° |
| 2026-04-23 07:06 | 37.45480 | 126.46038 | 38 ft | 0 kts | 324° |
| 2026-04-23 07:07 | 37.45483 | 126.46035 | 38 ft | 5 kts | 324° |
| 2026-04-23 07:07 | 37.45689 | 126.45851 | 35 ft | 72 kts | 324° |
| 2026-04-23 07:08 | 37.46284 | 126.45321 | 38 ft | 134 kts | 325° |
| 2026-04-23 07:08 | 37.47177 | 126.44526 | 63 ft | 174 kts | 323° |
| 2026-04-23 07:08 | 37.48171 | 126.43664 | 744 ft | 169 kts | 326° |
| 2026-04-23 07:08 | 37.49192 | 126.42856 | 1288 ft | 178 kts | 332° |
| 2026-04-23 07:09 | 37.50284 | 126.42054 | 1798 ft | 191 kts | 329° |
| 2026-04-23 07:09 | 37.51444 | 126.41078 | 2323 ft | 203 kts | 328° |
| 2026-04-23 07:09 | 37.52654 | 126.40056 | 2864 ft | 215 kts | 328° |
| 2026-04-23 07:09 | 37.53956 | 126.38965 | 3323 ft | 234 kts | 328° |
| 2026-04-23 07:10 | 37.55350 | 126.37806 | 3949 ft | 243 kts | 330° |
| 2026-04-23 07:10 | 37.56898 | 126.36931 | 4716 ft | 244 kts | 345° |
| 2026-04-23 07:10 | 37.58538 | 126.36346 | 5500 ft | 246 kts | 347° |
| 2026-04-23 07:10 | 37.60186 | 126.35781 | 6260 ft | 249 kts | 347° |
| 2026-04-23 07:11 | 37.61897 | 126.35322 | 7001 ft | 249 kts | 359° |
| 2026-04-23 07:11 | 37.63557 | 126.35707 | 7699 ft | 248 kts | 27° |
| 2026-04-23 07:11 | 37.64898 | 126.37091 | 8206 ft | 259 kts | 55° |
| 2026-04-23 07:12 | 37.66244 | 126.41516 | 9416 ft | 277 kts | 70° |
| 2026-04-23 07:12 | 37.66752 | 126.43877 | 10071 ft | 283 kts | 79° |
| 2026-04-23 07:12 | 37.66658 | 126.46433 | 10400 ft | 304 kts | 102° |
| 2026-04-23 07:12 | 37.65940 | 126.49036 | 10680 ft | 324 kts | 109° |
| 2026-04-23 07:13 | 37.65079 | 126.51766 | 10919 ft | 343 kts | 109° |
| 2026-04-23 07:13 | 37.64027 | 126.54538 | 11311 ft | 357 kts | 122° |
| 2026-04-23 07:13 | 37.62358 | 126.56888 | 11934 ft | 363 kts | 136° |
| 2026-04-23 07:13 | 37.60454 | 126.59027 | 12593 ft | 367 kts | 137° |
| 2026-04-23 07:14 | 37.58526 | 126.61169 | 13250 ft | 371 kts | 137° |
| 2026-04-23 07:14 | 37.56589 | 126.63347 | 13844 ft | 376 kts | 137° |
| 2026-04-23 07:14 | 37.54627 | 126.65572 | 14404 ft | 380 kts | 137° |
| 2026-04-23 07:14 | 37.52651 | 126.67822 | 14956 ft | 385 kts | 138° |
| 2026-04-23 07:15 | 37.50659 | 126.70093 | 15515 ft | 389 kts | 138° |
| 2026-04-23 07:15 | 37.48667 | 126.72364 | 16074 ft | 393 kts | 139° |
| 2026-04-23 07:15 | 37.46628 | 126.74687 | 16632 ft | 397 kts | 139° |
| 2026-04-23 07:15 | 37.44562 | 126.77038 | 17192 ft | 400 kts | 139° |
| 2026-04-23 07:16 | 37.42486 | 126.79399 | 17720 ft | 405 kts | 140° |
| 2026-04-23 07:16 | 37.40310 | 126.81692 | 18243 ft | 407 kts | 145° |
| 2026-04-23 07:16 | 37.38043 | 126.83849 | 18711 ft | 411 kts | 146° |
| 2026-04-23 07:16 | 37.35740 | 126.86024 | 19184 ft | 414 kts | 146° |
| 2026-04-23 07:17 | 37.33429 | 126.88206 | 19662 ft | 417 kts | 146° |
| 2026-04-23 07:17 | 37.31129 | 126.90379 | 20110 ft | 420 kts | 146° |
| 2026-04-23 07:17 | 37.28751 | 126.92631 | 20550 ft | 423 kts | 147° |
| 2026-04-23 07:17 | 37.26420 | 126.94835 | 20980 ft | 427 kts | 147° |
| 2026-04-23 07:18 | 37.24037 | 126.97090 | 21408 ft | 430 kts | 147° |
| 2026-04-23 07:18 | 37.21640 | 126.99358 | 21825 ft | 433 kts | 147° |
| 2026-04-23 07:18 | 37.19221 | 127.01643 | 22229 ft | 437 kts | 147° |
| 2026-04-23 07:18 | 37.16778 | 127.03947 | 22630 ft | 440 kts | 147° |
| 2026-04-23 07:19 | 37.14315 | 127.06269 | 23032 ft | 443 kts | 147° |
| 2026-04-23 07:19 | 37.11829 | 127.08611 | 23418 ft | 447 kts | 148° |
| 2026-04-23 07:19 | 37.09336 | 127.10959 | 23746 ft | 450 kts | 148° |
| 2026-04-23 07:19 | 37.06825 | 127.13321 | 24104 ft | 452 kts | 148° |
| 2026-04-23 07:20 | 37.04299 | 127.15696 | 24479 ft | 453 kts | 148° |
| 2026-04-23 07:20 | 37.01777 | 127.18063 | 24811 ft | 455 kts | 148° |
| 2026-04-23 07:20 | 36.99235 | 127.20447 | 25163 ft | 457 kts | 149° |
| 2026-04-23 07:20 | 36.96869 | 127.22663 | 25466 ft | 459 kts | 149° |
| 2026-04-23 07:21 | 36.94306 | 127.25064 | 25795 ft | 461 kts | 149° |
| 2026-04-23 07:21 | 36.91727 | 127.27478 | 26132 ft | 463 kts | 149° |
| 2026-04-23 07:21 | 36.89146 | 127.29895 | 26464 ft | 464 kts | 149° |
| 2026-04-23 07:21 | 36.86550 | 127.32321 | 26797 ft | 466 kts | 150° |
| 2026-04-23 07:22 | 36.83968 | 127.34791 | 27114 ft | 470 kts | 146° |
| 2026-04-23 07:22 | 36.81563 | 127.37605 | 27423 ft | 476 kts | 142° |
| 2026-04-23 07:22 | 36.79197 | 127.40525 | 27759 ft | 477 kts | 142° |
| 2026-04-23 07:22 | 36.76838 | 127.43442 | 28135 ft | 477 kts | 142° |
| 2026-04-23 07:23 | 36.74477 | 127.46351 | 28550 ft | 476 kts | 143° |
| 2026-04-23 07:23 | 36.72120 | 127.49246 | 28832 ft | 476 kts | 143° |
| 2026-04-23 07:23 | 36.69758 | 127.52139 | 28881 ft | 475 kts | 143° |
| 2026-04-23 07:24 | 36.65065 | 127.57880 | 28854 ft | 474 kts | 143° |
| 2026-04-23 07:24 | 36.60349 | 127.63638 | 28836 ft | 474 kts | 143° |
| 2026-04-23 07:25 | 36.55638 | 127.69380 | 28841 ft | 473 kts | 143° |
| 2026-04-23 07:25 | 36.50936 | 127.75100 | 28843 ft | 473 kts | 143° |
| 2026-04-23 07:26 | 36.46224 | 127.80826 | 28841 ft | 472 kts | 143° |
| 2026-04-23 07:26 | 36.41521 | 127.86530 | 28844 ft | 472 kts | 143° |
| 2026-04-23 07:27 | 36.36826 | 127.92219 | 28843 ft | 472 kts | 144° |
| 2026-04-23 07:27 | 36.32096 | 127.97943 | 28851 ft | 471 kts | 144° |
| 2026-04-23 07:28 | 36.27396 | 128.03610 | 28854 ft | 471 kts | 144° |
| 2026-04-23 07:28 | 36.22700 | 128.09265 | 28859 ft | 471 kts | 144° |
| 2026-04-23 07:29 | 36.17989 | 128.14926 | 28859 ft | 472 kts | 144° |
| 2026-04-23 07:29 | 36.14240 | 128.19427 | 28851 ft | 472 kts | 144° |
| 2026-04-23 07:30 | 36.09511 | 128.25094 | 28852 ft | 473 kts | 144° |
| 2026-04-23 07:30 | 36.04002 | 128.31682 | 28859 ft | 475 kts | 144° |
| 2026-04-23 07:31 | 36.00107 | 128.36332 | 28869 ft | 475 kts | 144° |
| 2026-04-23 07:31 | 35.95377 | 128.41970 | 28869 ft | 475 kts | 144° |
| 2026-04-23 07:32 | 35.90606 | 128.47648 | 28881 ft | 476 kts | 144° |
| 2026-04-23 07:32 | 35.85839 | 128.53311 | 28866 ft | 476 kts | 144° |
| 2026-04-23 07:33 | 35.80974 | 128.58825 | 28856 ft | 466 kts | 153° |
| 2026-04-23 07:33 | 35.78232 | 128.60842 | 28880 ft | 454 kts | 162° |
| 2026-04-23 07:33 | 35.75384 | 128.62540 | 28884 ft | 454 kts | 164° |
| 2026-04-23 07:34 | 35.69671 | 128.65876 | 28863 ft | 455 kts | 163° |
| 2026-04-23 07:34 | 35.63993 | 128.69258 | 28865 ft | 455 kts | 163° |
| 2026-04-23 07:35 | 35.58295 | 128.72660 | 28840 ft | 455 kts | 163° |
| 2026-04-23 07:35 | 35.52911 | 128.75868 | 28864 ft | 456 kts | 163° |
| 2026-04-23 07:36 | 35.47182 | 128.79276 | 28868 ft | 456 kts | 163° |
| 2026-04-23 07:36 | 35.41465 | 128.82671 | 28866 ft | 457 kts | 163° |
| 2026-04-23 07:37 | 35.35759 | 128.86053 | 28872 ft | 457 kts | 163° |
| 2026-04-23 07:37 | 35.30019 | 128.89454 | 28870 ft | 458 kts | 163° |
| 2026-04-23 07:38 | 35.24272 | 128.92852 | 28875 ft | 458 kts | 163° |
| 2026-04-23 07:38 | 35.18567 | 128.96219 | 28874 ft | 458 kts | 163° |
| 2026-04-23 07:39 | 35.12808 | 128.99610 | 28870 ft | 459 kts | 163° |
| 2026-04-23 07:39 | 35.07041 | 129.03007 | 28870 ft | 459 kts | 163° |
| 2026-04-23 07:40 | 35.01275 | 129.06392 | 28868 ft | 459 kts | 163° |
| 2026-04-23 07:40 | 34.95369 | 129.08747 | 28856 ft | 435 kts | 182° |
| 2026-04-23 07:41 | 34.89338 | 129.09442 | 28849 ft | 434 kts | 184° |
| 2026-04-23 07:41 | 34.83313 | 129.10207 | 28843 ft | 436 kts | 182° |
| 2026-04-23 07:42 | 34.77309 | 129.11028 | 28823 ft | 433 kts | 182° |
| 2026-04-23 07:42 | 34.74356 | 129.11440 | 28506 ft | 421 kts | 182° |
| 2026-04-23 07:42 | 34.71462 | 129.11838 | 27910 ft | 415 kts | 182° |
| 2026-04-23 07:42 | 34.68609 | 129.12222 | 27245 ft | 411 kts | 182° |
| 2026-04-23 07:43 | 34.65776 | 129.12604 | 26592 ft | 408 kts | 182° |
| 2026-04-23 07:43 | 34.62972 | 129.13235 | 25933 ft | 414 kts | 173° |
| 2026-04-23 07:43 | 34.60252 | 129.14496 | 25295 ft | 423 kts | 161° |
| 2026-04-23 07:43 | 34.57698 | 129.16294 | 24686 ft | 425 kts | 156° |
| 2026-04-23 07:44 | 34.55197 | 129.18208 | 24105 ft | 422 kts | 155° |
| 2026-04-23 07:44 | 34.52728 | 129.20099 | 23561 ft | 417 kts | 156° |
| 2026-04-23 07:44 | 34.50279 | 129.21950 | 23028 ft | 414 kts | 156° |
| 2026-04-23 07:44 | 34.47838 | 129.23779 | 22825 ft | 412 kts | 156° |
| 2026-04-23 07:45 | 34.45395 | 129.25599 | 22792 ft | 412 kts | 156° |
| 2026-04-23 07:45 | 34.42948 | 129.27420 | 22799 ft | 412 kts | 156° |
| 2026-04-23 07:45 | 34.40505 | 129.29238 | 22791 ft | 412 kts | 156° |
| 2026-04-23 07:45 | 34.38090 | 129.31033 | 22413 ft | 406 kts | 156° |
| 2026-04-23 07:46 | 34.35669 | 129.32831 | 21763 ft | 405 kts | 155° |
| 2026-04-23 07:46 | 34.33283 | 129.34601 | 21176 ft | 402 kts | 155° |
| 2026-04-23 07:46 | 34.30986 | 129.36305 | 20856 ft | 401 kts | 155° |
| 2026-04-23 07:46 | 34.28514 | 129.38138 | 20784 ft | 400 kts | 155° |
| 2026-04-23 07:47 | 34.26134 | 129.39900 | 20785 ft | 400 kts | 155° |
| 2026-04-23 07:47 | 34.23760 | 129.41657 | 20799 ft | 401 kts | 155° |
| 2026-04-23 07:47 | 34.21381 | 129.43416 | 20809 ft | 401 kts | 155° |
| 2026-04-23 07:47 | 34.18999 | 129.45176 | 20809 ft | 401 kts | 155° |
| 2026-04-23 07:48 | 34.16615 | 129.46937 | 20806 ft | 401 kts | 155° |
| 2026-04-23 07:48 | 34.14233 | 129.48696 | 20806 ft | 401 kts | 155° |
| 2026-04-23 07:48 | 34.11854 | 129.50451 | 20806 ft | 402 kts | 155° |
| 2026-04-23 07:48 | 34.09468 | 129.52211 | 20803 ft | 402 kts | 155° |
| 2026-04-23 07:49 | 34.07078 | 129.53972 | 20796 ft | 402 kts | 155° |
| 2026-04-23 07:49 | 34.04686 | 129.55732 | 20792 ft | 402 kts | 155° |
| 2026-04-23 07:49 | 34.02300 | 129.57487 | 20792 ft | 402 kts | 155° |
| 2026-04-23 07:49 | 33.99912 | 129.59245 | 20781 ft | 402 kts | 155° |
| 2026-04-23 07:50 | 33.97509 | 129.61011 | 20784 ft | 403 kts | 155° |
| 2026-04-23 07:50 | 33.95116 | 129.62769 | 20784 ft | 402 kts | 155° |
| 2026-04-23 07:50 | 33.92724 | 129.64525 | 20784 ft | 402 kts | 155° |
| 2026-04-23 07:50 | 33.90327 | 129.66284 | 20783 ft | 402 kts | 155° |
| 2026-04-23 07:51 | 33.87934 | 129.68037 | 20780 ft | 402 kts | 155° |
| 2026-04-23 07:51 | 33.85535 | 129.69794 | 20782 ft | 402 kts | 155° |
| 2026-04-23 07:51 | 33.83143 | 129.71545 | 20781 ft | 402 kts | 155° |
| 2026-04-23 07:51 | 33.80750 | 129.73294 | 20790 ft | 402 kts | 155° |
| 2026-04-23 07:52 | 33.78349 | 129.75051 | 20792 ft | 402 kts | 155° |
| 2026-04-23 07:52 | 33.75940 | 129.76783 | 20788 ft | 401 kts | 158° |
| 2026-04-23 07:52 | 33.73396 | 129.77956 | 20781 ft | 386 kts | 175° |
| 2026-04-23 07:52 | 33.70755 | 129.78469 | 20786 ft | 382 kts | 179° |
| 2026-04-23 07:53 | 33.68121 | 129.78871 | 20789 ft | 382 kts | 180° |
| 2026-04-23 07:53 | 33.65487 | 129.79278 | 20788 ft | 382 kts | 179° |
| 2026-04-23 07:53 | 33.62883 | 129.79698 | 20785 ft | 382 kts | 179° |
| 2026-04-23 07:53 | 33.60248 | 129.80133 | 20776 ft | 382 kts | 179° |
| 2026-04-23 07:54 | 33.57609 | 129.80575 | 20774 ft | 382 kts | 179° |
| 2026-04-23 07:54 | 33.54976 | 129.81018 | 20770 ft | 382 kts | 179° |
| 2026-04-23 07:54 | 33.52340 | 129.81462 | 20768 ft | 382 kts | 179° |
| 2026-04-23 07:54 | 33.49698 | 129.81907 | 20758 ft | 382 kts | 179° |
| 2026-04-23 07:55 | 33.47066 | 129.82351 | 20751 ft | 382 kts | 179° |
| 2026-04-23 07:55 | 33.44432 | 129.82795 | 20744 ft | 382 kts | 179° |
| 2026-04-23 07:55 | 33.41797 | 129.83239 | 20741 ft | 382 kts | 179° |
| 2026-04-23 07:55 | 33.39159 | 129.83684 | 20732 ft | 382 kts | 179° |
| 2026-04-23 07:56 | 33.36517 | 129.84127 | 20728 ft | 382 kts | 179° |
| 2026-04-23 07:56 | 33.33883 | 129.84570 | 20724 ft | 382 kts | 179° |
| 2026-04-23 07:56 | 33.31243 | 129.85011 | 20726 ft | 382 kts | 179° |
| 2026-04-23 07:56 | 33.28746 | 129.85425 | 20718 ft | 381 kts | 179° |
| 2026-04-23 07:57 | 33.26186 | 129.85859 | 20710 ft | 362 kts | 179° |
| 2026-04-23 07:57 | 33.23755 | 129.86272 | 20697 ft | 344 kts | 179° |
| 2026-04-23 07:57 | 33.21429 | 129.86660 | 20686 ft | 341 kts | 180° |
| 2026-04-23 07:57 | 33.19086 | 129.87047 | 20592 ft | 337 kts | 180° |
| 2026-04-23 07:58 | 33.16773 | 129.87626 | 20028 ft | 347 kts | 165° |
| 2026-04-23 07:58 | 33.14647 | 129.89115 | 19329 ft | 365 kts | 145° |
| 2026-04-23 07:58 | 33.12868 | 129.91357 | 18664 ft | 375 kts | 134° |
| 2026-04-23 07:58 | 33.11236 | 129.93798 | 18162 ft | 375 kts | 132° |
| 2026-04-23 07:59 | 33.09638 | 129.96250 | 17667 ft | 372 kts | 132° |
| 2026-04-23 07:59 | 33.08057 | 129.98684 | 17165 ft | 369 kts | 132° |
| 2026-04-23 07:59 | 33.06492 | 130.01089 | 16660 ft | 365 kts | 132° |
| 2026-04-23 07:59 | 33.04950 | 130.03462 | 16172 ft | 362 kts | 132° |
| 2026-04-23 08:00 | 33.03903 | 130.05070 | 15885 ft | 359 kts | 132° |
| 2026-04-23 08:00 | 33.02378 | 130.07407 | 15430 ft | 355 kts | 132° |
| 2026-04-23 08:00 | 33.00375 | 130.10445 | 14797 ft | 350 kts | 135° |
| 2026-04-23 08:00 | 32.99270 | 130.11835 | 14478 ft | 346 kts | 140° |
| 2026-04-23 08:01 | 32.97513 | 130.13824 | 14008 ft | 342 kts | 142° |
| 2026-04-23 08:01 | 32.95766 | 130.15736 | 13595 ft | 340 kts | 142° |
| 2026-04-23 08:01 | 32.94028 | 130.17627 | 13132 ft | 337 kts | 142° |
| 2026-04-23 08:01 | 32.92305 | 130.19495 | 12647 ft | 334 kts | 142° |
| 2026-04-23 08:02 | 32.90587 | 130.21344 | 12176 ft | 330 kts | 142° |
| 2026-04-23 08:02 | 32.88890 | 130.23162 | 11731 ft | 327 kts | 142° |
| 2026-04-23 08:02 | 32.87145 | 130.24844 | 11288 ft | 318 kts | 154° |
| 2026-04-23 08:02 | 32.85139 | 130.25697 | 10931 ft | 297 kts | 178° |
| 2026-04-23 08:03 | 32.83160 | 130.25561 | 10645 ft | 277 kts | 197° |
| 2026-04-23 08:03 | 32.81335 | 130.24940 | 10304 ft | 270 kts | 201° |
| 2026-04-23 08:03 | 32.79565 | 130.24244 | 9915 ft | 268 kts | 202° |
| 2026-04-23 08:03 | 32.77788 | 130.23520 | 9501 ft | 268 kts | 202° |
| 2026-04-23 08:04 | 32.76017 | 130.22788 | 9044 ft | 268 kts | 202° |
| 2026-04-23 08:04 | 32.74260 | 130.22056 | 8588 ft | 267 kts | 202° |
| 2026-04-23 08:04 | 32.72514 | 130.21314 | 8164 ft | 267 kts | 202° |
| 2026-04-23 08:04 | 32.70761 | 130.20558 | 7746 ft | 266 kts | 202° |
| 2026-04-23 08:05 | 32.69193 | 130.19612 | 7314 ft | 263 kts | 221° |
| 2026-04-23 08:05 | 32.68063 | 130.17904 | 6903 ft | 258 kts | 247° |
| 2026-04-23 08:05 | 32.67713 | 130.15840 | 6470 ft | 257 kts | 273° |
| 2026-04-23 08:05 | 32.67960 | 130.13738 | 6057 ft | 257 kts | 281° |
| 2026-04-23 08:06 | 32.68315 | 130.11655 | 5619 ft | 257 kts | 282° |
| 2026-04-23 08:06 | 32.68676 | 130.09573 | 5221 ft | 256 kts | 282° |
| 2026-04-23 08:06 | 32.69109 | 130.07536 | 4792 ft | 255 kts | 294° |
| 2026-04-23 08:06 | 32.70122 | 130.05807 | 4147 ft | 260 kts | 319° |
| 2026-04-23 08:07 | 32.71699 | 130.04743 | 3568 ft | 261 kts | 345° |
| 2026-04-23 08:07 | 32.73437 | 130.04536 | 3356 ft | 249 kts | 5° |
| 2026-04-23 08:07 | 32.75148 | 130.04779 | 3198 ft | 239 kts | 8° |
| 2026-04-23 08:07 | 32.76758 | 130.05035 | 3063 ft | 228 kts | 8° |
| 2026-04-23 08:08 | 32.78303 | 130.05069 | 2851 ft | 222 kts | 350° |
| 2026-04-23 08:08 | 32.79684 | 130.04310 | 2628 ft | 217 kts | 326° |
| 2026-04-23 08:08 | 32.80788 | 130.03162 | 2543 ft | 206 kts | 319° |
| 2026-04-23 08:08 | 32.81791 | 130.01978 | 2386 ft | 195 kts | 319° |
| 2026-04-23 08:09 | 32.82733 | 130.00928 | 2213 ft | 179 kts | 323° |
| 2026-04-23 08:09 | 32.83638 | 129.99953 | 1960 ft | 172 kts | 323° |
| 2026-04-23 08:09 | 32.84475 | 129.99056 | 1761 ft | 154 kts | 322° |
| 2026-04-23 08:09 | 32.85231 | 129.98248 | 1504 ft | 139 kts | 322° |
| 2026-04-23 08:10 | 32.85947 | 129.97484 | 1273 ft | 139 kts | 322° |
| 2026-04-23 08:10 | 32.86669 | 129.96711 | 1078 ft | 138 kts | 321° |
| 2026-04-23 08:10 | 32.88072 | 129.95210 | 763 ft | 134 kts | 322° |
| 2026-04-23 08:11 | 32.88753 | 129.94474 | 600 ft | 129 kts | 322° |
| 2026-04-23 08:11 | 32.89413 | 129.93771 | 425 ft | 126 kts | 322° |
| 2026-04-23 08:11 | 32.90066 | 129.93077 | 241 ft | 126 kts | 323° |
| 2026-04-23 08:11 | 32.90732 | 129.92379 | 64 ft | 126 kts | 321° |
| 2026-04-23 08:12 | 32.91363 | 129.91701 | 20 ft | 114 kts | 320° |
| 2026-04-23 08:12 | 32.91825 | 129.91210 | 22 ft | 63 kts | 318° |
| 2026-04-23 08:12 | 32.92031 | 129.90990 | 21 ft | 15 kts | 318° |
| 2026-04-23 08:12 | 32.92101 | 129.90914 | 22 ft | 15 kts | 317° |
| 2026-04-23 08:13 | 32.92188 | 129.90820 | 21 ft | 18 kts | 317° |
| 2026-04-23 08:13 | 32.92283 | 129.90716 | 24 ft | 20 kts | 319° |
| 2026-04-23 08:13 | 32.92392 | 129.90684 | 23 ft | 18 kts | 42° |
| 2026-04-23 08:13 | 32.92449 | 129.90793 | 22 ft | 16 kts | 97° |
| 2026-04-23 08:14 | 32.92372 | 129.90899 | 23 ft | 18 kts | 138° |
| 2026-04-23 08:14 | 32.92276 | 129.91001 | 25 ft | 16 kts | 138° |
| 2026-04-23 08:14 | 32.92189 | 129.91093 | 22 ft | 18 kts | 138° |
| 2026-04-23 08:14 | 32.92092 | 129.91196 | 22 ft | 19 kts | 138° |
| 2026-04-23 08:15 | 32.91987 | 129.91309 | 22 ft | 21 kts | 138° |
| 2026-04-23 08:15 | 32.91904 | 129.91399 | 25 ft | 0 kts | 138° |
| 2026-04-23 08:15 | 32.91897 | 129.91406 | 22 ft | 3 kts | 138° |
| 2026-04-23 08:15 | 32.91869 | 129.91436 | 24 ft | 8 kts | 138° |
| 2026-04-23 08:16 | 32.91819 | 129.91490 | 23 ft | 12 kts | 138° |
| 2026-04-23 08:16 | 32.91748 | 129.91566 | 23 ft | 16 kts | 138° |
| 2026-04-23 08:16 | 32.91660 | 129.91659 | 22 ft | 18 kts | 138° |
| 2026-04-23 08:16 | 32.91562 | 129.91764 | 23 ft | 20 kts | 138° |
| 2026-04-23 08:17 | 32.91462 | 129.91870 | 24 ft | 16 kts | 138° |
| 2026-04-23 08:17 | 32.91396 | 129.91940 | 24 ft | 11 kts | 138° |
| 2026-04-23 08:17 | 32.91406 | 129.92005 | 25 ft | 10 kts | 41° |
| 2026-04-23 08:17 | 32.91442 | 129.92048 | 23 ft | 7 kts | 48° |
| 2026-04-23 08:18 | 32.91454 | 129.92064 | 24 ft | 3 kts | 48° |
| 2026-04-23 08:18 | 32.91468 | 129.92082 | 24 ft | 1 kts | 47° |
| 2026-04-23 08:18 | 32.91472 | 129.92087 | 24 ft | 0 kts | 48° |